createdAt,value
2023-03-04T00:00:20.663Z,62.91
2023-03-04T00:01:23.325Z,62.94
2023-03-04T00:02:26.060Z,63.32
2023-03-04T00:03:28.761Z,63.20
2023-03-04T00:04:31.437Z,62.84
2023-03-04T00:05:34.082Z,62.77
2023-03-04T00:06:36.914Z,62.91
2023-03-04T00:07:39.598Z,62.99
2023-03-04T00:08:42.270Z,62.87
2023-03-04T00:09:46.330Z,63.01
2023-03-04T00:10:49.076Z,63.50
2023-03-04T00:11:51.731Z,63.64
2023-03-04T00:12:54.350Z,63.54
2023-03-04T00:13:57.284Z,64.01
2023-03-04T00:14:59.917Z,63.58
2023-03-04T00:16:02.605Z,63.50
2023-03-04T00:17:05.673Z,63.62
2023-03-04T00:18:08.351Z,63.70
2023-03-04T00:19:12.248Z,63.96
2023-03-04T00:20:15.422Z,63.89
2023-03-04T00:21:18.112Z,63.91
2023-03-04T00:22:20.732Z,64.46
2023-03-04T00:23:23.934Z,64.46
2023-03-04T00:24:26.581Z,64.65
2023-03-04T00:25:29.180Z,64.81
2023-03-04T00:26:31.854Z,64.75
2023-03-04T00:27:34.486Z,64.72
2023-03-04T00:28:37.128Z,64.43
2023-03-04T00:29:40.111Z,64.34
2023-03-04T00:30:42.747Z,64.55
2023-03-04T00:31:45.442Z,64.76
2023-03-04T00:32:48.143Z,64.58
2023-03-04T00:33:50.912Z,64.43
2023-03-04T00:34:53.600Z,64.64
2023-03-04T00:35:56.338Z,64.51
2023-03-04T00:37:02.429Z,64.70
2023-03-04T00:38:05.095Z,64.73
2023-03-04T00:39:07.753Z,64.99
2023-03-04T00:40:11.635Z,64.84
2023-03-04T00:41:14.302Z,64.90
2023-03-04T00:42:16.981Z,64.85
2023-03-04T00:43:19.698Z,64.66
2023-03-04T00:44:22.467Z,64.42
2023-03-04T00:45:25.183Z,64.52
2023-03-04T00:46:27.770Z,64.21
2023-03-04T00:47:30.396Z,64.32
2023-03-04T00:48:33.019Z,64.20
2023-03-04T00:49:35.759Z,64.23
2023-03-04T00:50:38.620Z,64.41
2023-03-04T00:51:41.244Z,64.63
2023-03-04T00:52:43.993Z,64.80
2023-03-04T00:53:46.694Z,65.07
2023-03-04T00:54:49.414Z,64.93
2023-03-04T00:55:52.129Z,65.24
2023-03-04T00:56:54.805Z,65.18
2023-03-04T00:57:57.530Z,64.78
2023-03-04T00:59:00.160Z,64.77
2023-03-04T01:00:02.882Z,64.96
2023-03-04T01:01:05.646Z,64.80
2023-03-04T01:02:08.365Z,64.83
2023-03-04T01:03:11.000Z,64.99
2023-03-04T01:04:13.672Z,64.69
2023-03-04T01:05:16.591Z,64.69
2023-03-04T01:06:19.285Z,65.03
2023-03-04T01:07:21.917Z,64.85
2023-03-04T01:08:24.586Z,64.89
2023-03-04T01:09:27.947Z,64.82
2023-03-04T01:10:30.623Z,64.83
2023-03-04T01:11:33.278Z,64.89
2023-03-04T01:12:35.971Z,64.87
2023-03-04T01:13:39.135Z,64.42
2023-03-04T01:14:41.838Z,64.36
2023-03-04T01:15:44.961Z,64.40
2023-03-04T01:16:47.682Z,64.41
2023-03-04T01:17:50.814Z,64.40
2023-03-04T01:18:53.494Z,64.27
2023-03-04T01:19:56.199Z,64.37
2023-03-04T01:20:59.419Z,64.83
2023-03-04T01:22:02.048Z,64.36
2023-03-04T01:23:04.765Z,64.18
2023-03-04T01:24:07.601Z,64.13
2023-03-04T01:25:11.393Z,64.21
2023-03-04T01:26:14.060Z,64.34
2023-03-04T01:27:16.785Z,64.42
2023-03-04T01:28:19.450Z,64.37
2023-03-04T01:29:22.112Z,64.55
2023-03-04T01:30:24.739Z,64.57
2023-03-04T01:31:27.715Z,64.51
2023-03-04T01:32:30.955Z,65.05
2023-03-04T01:33:33.873Z,64.69
2023-03-04T01:34:37.298Z,64.76
2023-03-04T01:35:40.078Z,64.53
2023-03-04T01:36:42.719Z,64.84
2023-03-04T01:37:45.425Z,64.84
2023-03-04T01:38:48.165Z,64.54
2023-03-04T01:39:50.797Z,64.55
2023-03-04T01:40:53.755Z,64.66
2023-03-04T01:41:56.557Z,64.60
2023-03-04T01:42:59.322Z,64.67
2023-03-04T01:44:03.562Z,64.52
2023-03-04T01:45:07.472Z,64.40
2023-03-04T01:46:14.009Z,64.52
2023-03-04T01:47:17.169Z,64.74
2023-03-04T01:48:38.448Z,64.60
2023-03-04T01:49:41.850Z,63.96
2023-03-04T01:50:44.523Z,64.07
2023-03-04T01:51:53.966Z,63.95
2023-03-04T01:52:56.897Z,64.22
2023-03-04T01:53:59.568Z,64.08
2023-03-04T01:55:02.269Z,64.43
2023-03-04T01:56:17.570Z,64.41
2023-03-04T01:57:25.795Z,64.45
2023-03-04T01:58:31.804Z,64.34
2023-03-04T01:59:34.517Z,63.84
2023-03-04T02:00:38.384Z,63.70
2023-03-04T02:01:42.927Z,63.82
2023-03-04T02:02:45.794Z,63.74
2023-03-04T02:03:48.431Z,63.73
2023-03-04T02:04:51.073Z,63.61
2023-03-04T02:05:55.007Z,63.88
2023-03-04T02:06:59.393Z,63.47
2023-03-04T02:08:02.840Z,63.82
2023-03-04T02:09:06.426Z,63.87
2023-03-04T02:10:10.075Z,63.93
2023-03-04T02:11:12.733Z,64.04
2023-03-04T02:12:15.363Z,64.07
2023-03-04T02:13:18.898Z,64.52
2023-03-04T02:14:22.618Z,64.13
2023-03-04T02:15:25.859Z,64.52
2023-03-04T02:16:28.876Z,64.35
2023-03-04T02:17:34.079Z,64.57
2023-03-04T02:18:36.672Z,64.03
2023-03-04T02:20:03.575Z,63.49
2023-03-04T02:21:31.027Z,63.38
2023-03-04T02:22:39.915Z,63.83
2023-03-04T02:23:53.077Z,63.52
2023-03-04T02:25:03.243Z,63.36
2023-03-04T02:26:14.956Z,63.54
2023-03-04T02:27:17.612Z,63.88
2023-03-04T02:28:20.414Z,63.98
2023-03-04T02:29:23.676Z,64.10
2023-03-04T02:30:29.751Z,63.94
2023-03-04T02:31:39.760Z,63.44
2023-03-04T02:32:42.486Z,63.99
2023-03-04T02:33:45.148Z,63.55
2023-03-04T02:34:50.992Z,63.18
2023-03-04T02:35:53.795Z,63.27
2023-03-04T02:36:57.672Z,63.54
2023-03-04T02:38:00.296Z,63.42
2023-03-04T02:39:08.227Z,63.84
2023-03-04T02:40:22.963Z,64.20
2023-03-04T02:41:28.987Z,63.93
2023-03-04T02:42:31.644Z,64.08
2023-03-04T02:43:34.343Z,63.85
2023-03-04T02:44:40.357Z,63.98
2023-03-04T02:45:47.498Z,64.47
2023-03-04T02:46:51.397Z,64.15
2023-03-04T02:47:54.058Z,64.44
2023-03-04T02:48:56.894Z,64.20
2023-03-04T02:49:59.576Z,64.77
2023-03-04T02:51:02.321Z,64.14
2023-03-04T02:52:10.027Z,64.94
2023-03-04T02:53:13.088Z,65.11
2023-03-04T02:54:21.682Z,64.07
2023-03-04T02:55:24.363Z,64.19
2023-03-04T02:56:27.047Z,63.97
2023-03-04T02:57:29.686Z,64.36
2023-03-04T02:58:32.332Z,64.58
2023-03-04T02:59:35.861Z,64.40
2023-03-04T03:00:38.933Z,64.30
2023-03-04T03:01:41.686Z,63.84
2023-03-04T03:02:44.422Z,63.16
2023-03-04T03:03:47.078Z,63.43
2023-03-04T03:04:49.809Z,63.75
2023-03-04T03:05:52.533Z,63.73
2023-03-04T03:06:55.498Z,63.62
2023-03-04T03:07:58.170Z,64.04
2023-03-04T03:09:00.816Z,63.90
2023-03-04T03:10:03.519Z,63.94
2023-03-04T03:11:07.760Z,63.43
2023-03-04T03:12:11.499Z,63.19
2023-03-04T03:13:14.101Z,63.28
2023-03-04T03:14:16.948Z,63.57
2023-03-04T03:15:20.407Z,63.17
2023-03-04T03:16:23.160Z,63.06
2023-03-04T03:17:25.857Z,62.87
2023-03-04T03:18:28.501Z,63.23
2023-03-04T03:19:31.131Z,62.89
2023-03-04T03:20:33.776Z,63.08
2023-03-04T03:21:36.425Z,62.75
2023-03-04T03:22:39.212Z,62.92
2023-03-04T03:23:41.824Z,63.03
2023-03-04T03:24:44.600Z,62.42
2023-03-04T03:25:47.219Z,62.75
2023-03-04T03:26:49.894Z,63.19
2023-03-04T03:27:52.504Z,63.43
2023-03-04T03:28:55.274Z,62.77
2023-03-04T03:29:57.880Z,62.68
2023-03-04T03:31:00.523Z,63.06
2023-03-04T03:32:03.247Z,63.53
2023-03-04T03:33:05.944Z,63.03
2023-03-04T03:34:08.630Z,63.32
2023-03-04T03:35:12.211Z,63.32
2023-03-04T03:36:14.933Z,63.73
2023-03-04T03:37:17.753Z,63.59
2023-03-04T03:38:20.426Z,62.80
2023-03-04T03:39:23.379Z,62.58
2023-03-04T03:40:26.068Z,62.45
2023-03-04T03:41:28.705Z,62.59
2023-03-04T03:42:31.395Z,62.80
2023-03-04T03:43:34.075Z,63.27
2023-03-04T03:44:36.746Z,63.00
2023-03-04T03:45:39.466Z,63.49
2023-03-04T03:46:42.116Z,63.51
2023-03-04T03:47:44.783Z,63.57
2023-03-04T03:48:47.437Z,63.65
2023-03-04T03:49:50.201Z,63.58
2023-03-04T03:50:52.877Z,63.07
2023-03-04T03:51:55.494Z,62.94
2023-03-04T03:52:58.493Z,63.23
2023-03-04T03:54:01.216Z,63.25
2023-03-04T03:55:04.516Z,63.51
2023-03-04T03:56:07.702Z,63.69
2023-03-04T03:57:10.402Z,63.75
2023-03-04T03:58:13.176Z,63.90
2023-03-04T03:59:15.892Z,64.23
2023-03-04T04:00:19.492Z,64.10
2023-03-04T04:01:22.125Z,64.15
2023-03-04T04:02:25.008Z,64.68
2023-03-04T04:03:27.904Z,64.30
2023-03-04T04:04:30.598Z,63.90
2023-03-04T04:05:33.260Z,64.13
2023-03-04T04:06:35.928Z,64.68
2023-03-04T04:07:39.093Z,64.90
2023-03-04T04:08:42.385Z,64.99
2023-03-04T04:09:45.141Z,64.51
2023-03-04T04:10:47.811Z,64.96
2023-03-04T04:11:50.458Z,64.50
2023-03-04T04:12:53.100Z,64.44
2023-03-04T04:13:55.757Z,64.65
2023-03-04T04:14:58.698Z,64.40
2023-03-04T04:16:01.388Z,64.37
2023-03-04T04:17:03.974Z,65.11
2023-03-04T04:18:10.038Z,64.46
2023-03-04T04:19:21.132Z,63.89
2023-03-04T04:20:26.149Z,64.14
2023-03-04T04:21:28.908Z,64.17
2023-03-04T04:22:31.518Z,63.92
2023-03-04T04:23:34.270Z,63.67
2023-03-04T04:24:37.043Z,63.86
2023-03-04T04:25:39.764Z,63.60
2023-03-04T04:26:42.818Z,63.63
2023-03-04T04:27:45.429Z,63.72
2023-03-04T04:28:48.083Z,63.71
2023-03-04T04:29:50.709Z,63.97
2023-03-04T04:30:53.435Z,64.07
2023-03-04T04:31:56.145Z,63.78
2023-03-04T04:33:02.635Z,64.31
2023-03-04T04:34:05.302Z,64.04
2023-03-04T04:35:08.703Z,64.12
2023-03-04T04:36:16.429Z,64.39
2023-03-04T04:37:19.048Z,65.02
2023-03-04T04:38:21.716Z,64.42
2023-03-04T04:39:24.356Z,63.95
2023-03-04T04:40:27.286Z,63.81
2023-03-04T04:41:33.603Z,63.90
2023-03-04T04:42:36.249Z,64.43
2023-03-04T04:43:38.867Z,63.93
2023-03-04T04:44:41.614Z,64.18
2023-03-04T04:45:44.313Z,64.03
2023-03-04T04:46:47.016Z,64.05
2023-03-04T04:47:49.705Z,64.01
2023-03-04T04:48:52.423Z,64.12
2023-03-04T04:49:55.054Z,64.27
2023-03-04T04:50:57.819Z,64.63
2023-03-04T04:52:00.485Z,64.43
2023-03-04T04:53:03.104Z,64.12
2023-03-04T04:54:06.598Z,64.38
2023-03-04T04:55:09.891Z,64.29
2023-03-04T04:56:18.392Z,64.90
2023-03-04T04:57:21.085Z,64.27
2023-03-04T04:58:23.736Z,64.23
2023-03-04T04:59:26.405Z,64.66
2023-03-04T05:00:29.084Z,64.41
2023-03-04T05:01:32.033Z,64.65
2023-03-04T05:02:38.342Z,64.72
2023-03-04T05:03:41.578Z,64.74
2023-03-04T05:04:44.278Z,64.53
2023-03-04T05:05:47.295Z,64.65
2023-03-04T05:06:50.063Z,64.83
2023-03-04T05:07:52.696Z,65.15
2023-03-04T05:08:55.355Z,64.59
2023-03-04T05:09:58.019Z,64.30
2023-03-04T05:11:00.771Z,65.17
2023-03-04T05:12:03.560Z,65.29
2023-03-04T05:13:06.203Z,64.31
2023-03-04T05:14:08.861Z,64.53
2023-03-04T05:15:12.023Z,64.43
2023-03-04T05:16:16.034Z,64.40
2023-03-04T05:17:18.700Z,64.66
2023-03-04T05:18:22.622Z,64.17
2023-03-04T05:19:25.295Z,64.43
2023-03-04T05:20:28.905Z,64.16
2023-03-04T05:21:31.633Z,64.63
2023-03-04T05:22:34.328Z,64.23
2023-03-04T05:23:40.008Z,64.52
2023-03-04T05:24:42.733Z,64.69
2023-03-04T05:25:45.461Z,64.50
2023-03-04T05:26:48.089Z,64.75
2023-03-04T05:27:50.757Z,64.45
2023-03-04T05:28:53.429Z,64.83
2023-03-04T05:29:56.765Z,64.38
2023-03-04T05:30:59.508Z,64.58
2023-03-04T05:32:02.232Z,64.35
2023-03-04T05:33:05.012Z,64.61
2023-03-04T05:34:07.687Z,65.65
2023-03-04T05:35:10.884Z,65.43
2023-03-04T05:36:13.671Z,64.95
2023-03-04T05:37:16.299Z,64.33
2023-03-04T05:38:20.788Z,64.52
2023-03-04T05:39:23.503Z,64.13
2023-03-04T05:40:27.003Z,64.44
2023-03-04T05:41:29.656Z,65.02
2023-03-04T05:42:32.345Z,65.12
2023-03-04T05:43:37.088Z,64.81
2023-03-04T05:44:39.773Z,65.03
2023-03-04T05:45:43.101Z,64.84
2023-03-04T05:46:45.837Z,64.75
2023-03-04T05:47:48.553Z,64.51
2023-03-04T05:48:51.234Z,64.48
2023-03-04T05:49:53.924Z,64.37
2023-03-04T05:50:58.810Z,64.72
2023-03-04T05:52:01.458Z,64.59
2023-03-04T05:53:04.176Z,64.10
2023-03-04T05:54:06.844Z,64.39
2023-03-04T05:55:09.936Z,64.72
2023-03-04T05:56:18.728Z,64.65
2023-03-04T05:57:21.384Z,64.31
2023-03-04T05:58:24.329Z,64.35
2023-03-04T05:59:28.265Z,63.96
2023-03-04T06:00:37.012Z,63.29
2023-03-04T06:01:39.666Z,63.08
2023-03-04T06:02:43.884Z,63.80
2023-03-04T06:03:46.623Z,63.51
2023-03-04T06:04:49.310Z,62.76
2023-03-04T06:05:52.030Z,63.38
2023-03-04T06:06:54.712Z,63.06
2023-03-04T06:07:57.377Z,63.55
2023-03-04T06:09:00.491Z,63.73
2023-03-04T06:10:03.216Z,63.83
2023-03-04T06:11:06.650Z,64.15
2023-03-04T06:12:09.511Z,64.13
2023-03-04T06:13:12.558Z,63.91
2023-03-04T06:14:15.321Z,63.81
2023-03-04T06:15:18.440Z,63.54
2023-03-04T06:16:21.119Z,63.56
2023-03-04T06:17:23.811Z,63.33
2023-03-04T06:18:28.440Z,63.33
2023-03-04T06:19:31.074Z,63.83
2023-03-04T06:20:34.021Z,63.99
2023-03-04T06:21:36.749Z,63.68
2023-03-04T06:22:39.462Z,63.40
2023-03-04T06:23:43.128Z,63.47
2023-03-04T06:24:45.758Z,63.66
2023-03-04T06:25:54.151Z,62.89
2023-03-04T06:26:57.145Z,63.44
2023-03-04T06:27:59.876Z,62.87
2023-03-04T06:29:02.560Z,62.79
2023-03-04T06:30:05.806Z,62.30
2023-03-04T06:31:08.651Z,62.33
2023-03-04T06:32:11.408Z,62.01
2023-03-04T06:33:14.144Z,61.88
2023-03-04T06:34:16.797Z,62.35
2023-03-04T06:35:19.555Z,61.79
2023-03-04T06:36:22.329Z,61.79
2023-03-04T06:37:25.126Z,61.91
2023-03-04T06:38:28.559Z,62.00
2023-03-04T06:39:31.243Z,61.61
2023-03-04T06:40:34.460Z,62.05
2023-03-04T06:41:37.237Z,61.88
2023-03-04T06:42:41.671Z,61.92
2023-03-04T06:43:44.489Z,62.19
2023-03-04T06:44:47.352Z,62.37
2023-03-04T06:45:50.395Z,61.79
2023-03-04T06:46:53.245Z,61.36
2023-03-04T06:47:55.939Z,61.87
2023-03-04T06:48:58.609Z,61.85
2023-03-04T06:50:01.392Z,62.03
2023-03-04T06:51:11.801Z,61.98
2023-03-04T06:52:14.566Z,62.01
2023-03-04T06:53:17.225Z,61.45
2023-03-04T06:54:19.923Z,61.49
2023-03-04T06:55:22.574Z,61.95
2023-03-04T06:56:25.251Z,62.07
2023-03-04T06:57:27.909Z,62.01
2023-03-04T06:58:30.562Z,61.70
2023-03-04T06:59:33.299Z,61.51
2023-03-04T07:00:36.115Z,61.29
2023-03-04T07:01:39.258Z,61.65
2023-03-04T07:02:41.942Z,61.46
2023-03-04T07:03:45.219Z,61.29
2023-03-04T07:04:48.001Z,61.25
2023-03-04T07:05:50.696Z,61.37
2023-03-04T07:06:53.593Z,61.26
2023-03-04T07:07:56.371Z,61.47
2023-03-04T07:08:59.522Z,61.32
2023-03-04T07:10:02.222Z,61.22
2023-03-04T07:11:05.000Z,60.95
2023-03-04T07:12:07.737Z,61.04
2023-03-04T07:13:10.440Z,60.98
2023-03-04T07:14:13.179Z,61.36
2023-03-04T07:15:16.023Z,60.99
2023-03-04T07:16:21.645Z,60.93
2023-03-04T07:17:24.304Z,60.62
2023-03-04T07:18:27.194Z,60.98
2023-03-04T07:19:30.061Z,60.64
2023-03-04T07:20:32.900Z,60.67
2023-03-04T07:21:35.690Z,60.74
2023-03-04T07:22:38.507Z,60.53
2023-03-04T07:23:41.907Z,60.27
2023-03-04T07:24:44.606Z,60.26
2023-03-04T07:25:47.941Z,60.04
2023-03-04T07:26:50.588Z,59.59
2023-03-04T07:27:53.324Z,60.11
2023-03-04T07:28:58.297Z,59.95
2023-03-04T07:30:01.024Z,59.80
2023-03-04T07:31:31.327Z,59.52
2023-03-04T07:32:35.768Z,59.57
2023-03-04T07:33:38.663Z,59.84
2023-03-04T07:34:41.298Z,59.76
2023-03-04T07:35:43.984Z,59.65
2023-03-04T07:36:46.731Z,59.38
2023-03-04T07:37:49.505Z,59.06
2023-03-04T07:38:53.054Z,59.10
2023-03-04T07:39:55.718Z,59.04
2023-03-04T07:41:04.100Z,58.71
2023-03-04T07:42:08.666Z,59.11
2023-03-04T07:43:13.710Z,59.23
2023-03-04T07:44:16.466Z,58.66
2023-03-04T07:45:19.409Z,58.77
2023-03-04T07:46:22.035Z,58.48
2023-03-04T07:47:24.738Z,58.30
2023-03-04T07:48:27.612Z,58.67
2023-03-04T07:49:30.279Z,58.39
2023-03-04T07:50:32.936Z,58.35
2023-03-04T07:51:36.734Z,58.28
2023-03-04T07:52:44.476Z,57.71
2023-03-04T07:53:49.484Z,57.79
2023-03-04T07:54:52.138Z,57.68
2023-03-04T07:55:54.762Z,57.67
2023-03-04T07:56:57.821Z,57.47
2023-03-04T07:58:00.420Z,57.40
2023-03-04T07:59:03.388Z,57.04
2023-03-04T08:00:06.512Z,57.08
2023-03-04T08:01:33.403Z,57.09
2023-03-04T08:02:36.156Z,56.45
2023-03-04T08:03:39.012Z,56.74
2023-03-04T08:04:41.667Z,57.33
2023-03-04T08:05:44.464Z,57.00
2023-03-04T08:06:47.079Z,57.05
2023-03-04T08:07:49.823Z,56.85
2023-03-04T08:09:00.951Z,56.57
2023-03-04T08:10:03.653Z,57.01
2023-03-04T08:11:11.537Z,57.06
2023-03-04T08:12:14.227Z,56.53
2023-03-04T08:13:16.862Z,56.09
2023-03-04T08:14:19.959Z,56.08
2023-03-04T08:15:22.569Z,55.91
2023-03-04T08:16:25.968Z,55.55
2023-03-04T08:17:30.830Z,55.51
2023-03-04T08:18:33.986Z,55.63
2023-03-04T08:19:37.199Z,55.23
2023-03-04T08:20:44.391Z,53.96
2023-03-04T08:21:47.062Z,53.74
2023-03-04T08:22:49.795Z,53.38
2023-03-04T08:23:53.392Z,52.82
2023-03-04T08:24:56.041Z,53.24
2023-03-04T08:25:58.747Z,52.73
2023-03-04T08:27:01.447Z,52.50
2023-03-04T08:28:04.238Z,51.84
2023-03-04T08:29:07.038Z,52.38
2023-03-04T08:30:10.584Z,51.21
2023-03-04T08:31:15.058Z,51.89
2023-03-04T08:32:17.803Z,51.67
2023-03-04T08:33:20.526Z,51.37
2023-03-04T08:34:26.423Z,51.21
2023-03-04T08:35:29.153Z,50.65
2023-03-04T08:36:31.842Z,50.63
2023-03-04T08:37:34.465Z,50.87
2023-03-04T08:38:37.175Z,49.92
2023-03-04T08:39:40.207Z,49.81
2023-03-04T08:40:42.877Z,49.86
2023-03-04T08:41:45.921Z,50.27
2023-03-04T08:42:48.859Z,49.13
2023-03-04T08:43:51.624Z,49.47
2023-03-04T08:44:54.234Z,48.80
2023-03-04T08:45:57.561Z,48.82
2023-03-04T08:47:00.217Z,48.30
2023-03-04T08:48:03.704Z,48.68
2023-03-04T08:49:06.900Z,49.20
2023-03-04T08:50:10.337Z,48.93
2023-03-04T08:51:15.434Z,48.69
2023-03-04T08:52:18.146Z,48.24
2023-03-04T08:53:22.058Z,48.75
2023-03-04T08:54:24.726Z,49.22
2023-03-04T08:55:27.388Z,48.61
2023-03-04T08:56:30.059Z,48.85
2023-03-04T08:57:32.738Z,48.21
2023-03-04T08:58:36.026Z,47.76
2023-03-04T08:59:38.805Z,48.35
2023-03-04T09:00:45.211Z,48.71
2023-03-04T09:01:48.001Z,48.00
2023-03-04T09:02:51.183Z,47.43
2023-03-04T09:03:53.917Z,47.13
2023-03-04T09:04:56.599Z,47.82
2023-03-04T09:05:59.814Z,48.32
2023-03-04T09:07:02.447Z,46.97
2023-03-04T09:08:05.103Z,46.83
2023-03-04T09:09:07.848Z,46.83
2023-03-04T09:10:11.209Z,47.51
2023-03-04T09:11:14.322Z,46.74
2023-03-04T09:12:17.024Z,45.67
2023-03-04T09:13:19.660Z,46.04
2023-03-04T09:14:22.316Z,45.84
2023-03-04T09:15:25.049Z,45.34
2023-03-04T09:16:28.048Z,45.70
2023-03-04T09:17:32.157Z,45.57
2023-03-04T09:18:34.824Z,46.04
2023-03-04T09:19:38.293Z,45.73
2023-03-04T09:20:44.785Z,45.66
2023-03-04T09:21:47.426Z,45.16
2023-03-04T09:22:50.124Z,45.50
2023-03-04T09:23:52.940Z,45.32
2023-03-04T09:24:55.590Z,44.99
2023-03-04T09:25:58.334Z,45.32
2023-03-04T09:27:00.993Z,45.67
2023-03-04T09:28:04.078Z,45.77
2023-03-04T09:29:07.663Z,45.36
2023-03-04T09:30:11.016Z,44.57
2023-03-04T09:31:15.687Z,44.27
2023-03-04T09:32:19.193Z,44.90
2023-03-04T09:33:21.868Z,44.94
2023-03-04T09:34:24.538Z,43.49
2023-03-04T09:35:27.336Z,43.24
2023-03-04T09:36:30.181Z,43.00
2023-03-04T09:37:33.028Z,43.15
2023-03-04T09:38:35.724Z,44.25
2023-03-04T09:39:38.574Z,43.90
2023-03-04T09:40:47.380Z,43.66
2023-03-04T09:41:54.107Z,44.55
2023-03-04T09:43:06.881Z,44.91
2023-03-04T09:44:33.356Z,43.36
2023-03-04T09:45:46.742Z,43.71
2023-03-04T09:46:50.438Z,43.17
2023-03-04T09:47:55.446Z,42.71
2023-03-04T09:48:58.259Z,43.65
2023-03-04T09:50:05.019Z,43.15
2023-03-04T09:51:15.933Z,43.59
2023-03-04T09:52:50.674Z,44.46
2023-03-04T09:54:10.371Z,43.76
2023-03-04T09:55:45.946Z,43.43
2023-03-04T09:56:53.362Z,43.73
2023-03-04T09:58:04.908Z,43.57
2023-03-04T09:59:22.844Z,43.92
2023-03-04T10:00:33.780Z,43.21
2023-03-04T10:01:55.793Z,43.47
2023-03-04T10:03:13.173Z,43.89
2023-03-04T10:04:19.702Z,43.43
2023-03-04T10:05:25.146Z,43.08
2023-03-04T10:06:29.024Z,42.69
2023-03-04T10:07:37.620Z,43.21
2023-03-04T10:09:16.583Z,43.09
2023-03-04T10:10:26.083Z,43.78
2023-03-04T10:11:35.590Z,43.81
2023-03-04T10:12:43.675Z,42.88
2023-03-04T10:13:55.410Z,42.77
2023-03-04T10:15:06.515Z,43.17
2023-03-04T10:16:16.639Z,42.58
2023-03-04T10:17:41.207Z,41.99
2023-03-04T10:18:51.141Z,42.26
2023-03-04T10:19:59.542Z,42.75
2023-03-04T10:21:30.092Z,42.74
2023-03-04T10:22:45.971Z,42.53
2023-03-04T10:23:50.214Z,42.22
2023-03-04T10:24:56.858Z,41.65
2023-03-04T10:26:00.910Z,42.45
2023-03-04T10:27:08.194Z,42.42
2023-03-04T10:28:19.517Z,42.03
2023-03-04T10:29:25.550Z,42.46
2023-03-04T10:31:05.881Z,42.28
2023-03-04T10:32:14.703Z,42.68
2023-03-04T10:33:20.550Z,42.89
2023-03-04T10:34:23.686Z,42.55
2023-03-04T10:35:37.566Z,41.39
2023-03-04T10:36:57.191Z,41.96
2023-03-04T10:38:06.007Z,42.14
2023-03-04T10:39:22.855Z,42.07
2023-03-04T10:40:27.489Z,41.62
2023-03-04T10:41:31.760Z,40.43
2023-03-04T10:42:38.396Z,40.76
2023-03-04T10:43:41.605Z,41.19
2023-03-04T10:44:52.941Z,40.80
2023-03-04T10:45:59.831Z,41.71
2023-03-04T10:47:02.899Z,42.00
2023-03-04T10:48:06.148Z,41.09
2023-03-04T10:49:10.966Z,40.47
2023-03-04T10:50:28.422Z,40.72
2023-03-04T10:51:31.831Z,41.57
2023-03-04T10:52:47.717Z,41.82
2023-03-04T10:53:56.998Z,42.33
2023-03-04T10:55:03.675Z,42.44
2023-03-04T10:56:30.989Z,41.68
2023-03-04T10:57:39.432Z,40.66
2023-03-04T10:58:42.086Z,40.27
2023-03-04T10:59:57.053Z,40.64
2023-03-04T11:01:06.363Z,41.67
2023-03-04T11:02:22.609Z,42.39
2023-03-04T11:03:29.574Z,41.64
2023-03-04T11:04:35.542Z,41.53
2023-03-04T11:05:38.154Z,41.90
2023-03-04T11:06:43.893Z,41.48
2023-03-04T11:07:56.696Z,41.34
2023-03-04T11:09:01.067Z,41.22
2023-03-04T11:10:17.073Z,40.65
2023-03-04T11:11:35.519Z,41.16
2023-03-04T11:12:38.292Z,41.98
2023-03-04T11:13:53.619Z,41.81
2023-03-04T11:14:57.096Z,42.21
2023-03-04T11:16:01.757Z,41.88
2023-03-04T11:17:21.901Z,42.08
2023-03-04T11:18:45.239Z,41.96
2023-03-04T11:19:54.434Z,41.82
2023-03-04T11:20:58.646Z,41.21
2023-03-04T11:22:02.791Z,41.32
2023-03-04T11:23:11.652Z,40.47
2023-03-04T11:24:32.024Z,40.63
2023-03-04T11:25:42.968Z,40.96
2023-03-04T11:26:54.698Z,40.94
2023-03-04T11:28:02.555Z,41.19
2023-03-04T11:29:16.034Z,40.97
2023-03-04T11:30:37.661Z,41.52
2023-03-04T11:31:51.977Z,41.95
2023-03-04T11:33:01.344Z,41.13
2023-03-04T11:34:06.635Z,40.69
2023-03-04T11:35:33.784Z,40.95
2023-03-04T11:36:48.307Z,40.19
2023-03-04T11:38:03.350Z,40.17
2023-03-04T11:39:15.004Z,40.57
2023-03-04T11:40:30.187Z,40.01
2023-03-04T11:41:51.576Z,39.73
2023-03-04T11:43:33.062Z,39.17
2023-03-04T11:44:36.093Z,40.02
2023-03-04T11:46:23.844Z,40.02
2023-03-04T11:47:53.906Z,39.98
2023-03-04T11:48:59.563Z,39.57
2023-03-04T11:50:43.767Z,38.90
2023-03-04T11:52:00.481Z,39.34
2023-03-04T11:53:26.795Z,39.93
2023-03-04T11:54:47.468Z,39.14
2023-03-04T11:55:58.820Z,38.52
2023-03-04T11:57:37.963Z,38.25
2023-03-04T11:59:00.153Z,38.19
2023-03-04T12:00:29.096Z,39.16
2023-03-04T12:01:49.356Z,39.09
2023-03-04T12:03:14.873Z,39.40
2023-03-04T12:04:23.638Z,40.34
2023-03-04T12:05:26.332Z,40.34
2023-03-04T12:06:53.309Z,39.92
2023-03-04T12:08:04.803Z,39.75
2023-03-04T12:09:30.615Z,40.37
2023-03-04T12:11:02.720Z,40.32
2023-03-04T12:12:14.300Z,40.30
2023-03-04T12:13:26.478Z,39.21
2023-03-04T12:14:42.443Z,39.53
2023-03-04T12:15:56.555Z,41.10
2023-03-04T12:17:26.519Z,40.84
2023-03-04T12:18:47.593Z,40.71
2023-03-04T12:20:11.673Z,41.36
2023-03-04T12:21:17.061Z,40.65
2023-03-04T12:22:25.501Z,40.87
2023-03-04T12:24:14.028Z,41.32
2023-03-04T12:25:25.685Z,41.19
2023-03-04T12:26:56.157Z,40.84
2023-03-04T12:28:19.243Z,41.29
2023-03-04T12:29:37.001Z,41.82
2023-03-04T12:31:07.368Z,41.99
2023-03-04T12:32:12.842Z,42.04
2023-03-04T12:33:40.128Z,42.20
2023-03-04T12:35:27.617Z,42.26
2023-03-04T12:36:48.233Z,41.99
2023-03-04T12:38:28.154Z,41.82
2023-03-04T12:39:43.844Z,41.92
2023-03-04T12:41:23.573Z,42.01
2023-03-04T12:43:07.653Z,40.84
2023-03-04T12:44:18.221Z,40.89
2023-03-04T12:45:46.864Z,40.09
2023-03-04T12:47:22.065Z,40.71
2023-03-04T12:48:44.721Z,40.28
2023-03-04T12:50:05.354Z,40.70
2023-03-04T12:51:17.168Z,40.63
2023-03-04T12:52:38.486Z,41.46
2023-03-04T12:54:06.489Z,41.83
2023-03-04T12:55:13.584Z,41.43
2023-03-04T12:56:31.931Z,41.06
2023-03-04T12:57:35.465Z,41.29
2023-03-04T12:58:38.530Z,41.27
2023-03-04T12:59:48.956Z,41.90
2023-03-04T13:01:04.548Z,40.50
2023-03-04T13:02:28.570Z,40.86
2023-03-04T13:04:01.037Z,41.26
2023-03-04T13:05:04.060Z,41.43
2023-03-04T13:06:38.236Z,41.18
2023-03-04T13:08:03.269Z,40.88
2023-03-04T13:09:05.916Z,41.33
2023-03-04T13:10:17.933Z,41.67
2023-03-04T13:11:29.918Z,41.60
2023-03-04T13:12:57.345Z,41.69
2023-03-04T13:14:30.344Z,41.93
2023-03-04T13:15:38.392Z,41.88
2023-03-04T13:16:42.141Z,41.19
2023-03-04T13:17:44.730Z,41.20
2023-03-04T13:18:47.496Z,41.51
2023-03-04T13:19:53.863Z,40.90
2023-03-04T13:21:14.757Z,40.99
2023-03-04T13:22:33.782Z,41.20
2023-03-04T13:23:36.714Z,39.71
2023-03-04T13:24:47.729Z,40.22
2023-03-04T13:26:17.517Z,39.54
2023-03-04T13:27:52.594Z,39.84
2023-03-04T13:29:16.380Z,39.90
2023-03-04T13:30:34.547Z,38.97
2023-03-04T13:32:00.658Z,38.71
2023-03-04T13:33:09.600Z,38.81
2023-03-04T13:34:54.064Z,38.45
2023-03-04T13:36:03.242Z,38.78
2023-03-04T13:37:33.896Z,37.79
2023-03-04T13:38:39.726Z,38.62
2023-03-04T13:39:42.429Z,38.56
2023-03-04T13:40:45.116Z,39.12
2023-03-04T13:41:49.958Z,39.16
2023-03-04T13:42:52.692Z,37.82
2023-03-04T13:43:59.242Z,38.06
2023-03-04T13:45:02.290Z,37.57
2023-03-04T13:46:20.381Z,37.52
2023-03-04T13:47:32.160Z,36.92
2023-03-04T13:48:37.561Z,37.37
2023-03-04T13:49:40.235Z,36.22
2023-03-04T13:50:49.165Z,36.81
2023-03-04T13:51:52.717Z,36.70
2023-03-04T13:52:56.507Z,35.65
2023-03-04T13:54:01.939Z,35.00
2023-03-04T13:55:40.138Z,34.91
2023-03-04T13:56:43.699Z,35.19
2023-03-04T13:57:51.269Z,34.97
2023-03-04T13:59:08.938Z,34.76
2023-03-04T14:00:14.443Z,35.26
2023-03-04T14:01:31.399Z,35.35
2023-03-04T14:02:35.826Z,35.73
2023-03-04T14:03:38.572Z,35.02
2023-03-04T14:04:44.269Z,35.30
2023-03-04T14:05:46.952Z,35.54
2023-03-04T14:06:56.747Z,35.52
2023-03-04T14:08:19.065Z,35.63
2023-03-04T14:09:28.306Z,34.96
2023-03-04T14:10:31.042Z,35.36
2023-03-04T14:11:44.726Z,35.63
2023-03-04T14:13:01.742Z,36.36
2023-03-04T14:14:07.826Z,35.23
2023-03-04T14:15:30.662Z,35.46
2023-03-04T14:16:41.135Z,35.08
2023-03-04T14:17:51.394Z,34.86
2023-03-04T14:19:07.623Z,34.93
2023-03-04T14:20:32.324Z,35.24